sensor_id;sensor_type;location;lat;lon;timestamp;P1;durP1;ratioP1;P2;durP2;ratioP2
48481;SDS011;34284;48.278;16.378;2023-08-31T00:01:40;308.77;;;185.20;;
48481;SDS011;34284;48.278;16.378;2023-08-31T00:04:06;318.50;;;189.70;;
48481;SDS011;34284;48.278;16.378;2023-08-31T00:06:33;314.83;;;187.27;;
48481;SDS011;34284;48.278;16.378;2023-08-31T00:08:59;309.70;;;183.00;;
48481;SDS011;34284;48.278;16.378;2023-08-31T00:11:25;318.07;;;188.43;;
48481;SDS011;34284;48.278;16.378;2023-08-31T00:13:51;315.63;;;183.00;;
48481;SDS011;34284;48.278;16.378;2023-08-31T00:16:20;310.70;;;185.23;;
48481;SDS011;34284;48.278;16.378;2023-08-31T00:18:50;312.73;;;187.47;;
48481;SDS011;34284;48.278;16.378;2023-08-31T00:21:16;215.70;;;138.07;;
48481;SDS011;34284;48.278;16.378;2023-08-31T00:23:42;318.77;;;189.17;;
48481;SDS011;34284;48.278;16.378;2023-08-31T00:26:08;320.67;;;188.10;;
48481;SDS011;34284;48.278;16.378;2023-08-31T00:28:35;314.50;;;190.43;;
48481;SDS011;34284;48.278;16.378;2023-08-31T00:31:01;314.47;;;192.87;;
48481;SDS011;34284;48.278;16.378;2023-08-31T00:33:30;321.60;;;192.70;;
48481;SDS011;34284;48.278;16.378;2023-08-31T00:35:59;315.70;;;190.40;;
48481;SDS011;34284;48.278;16.378;2023-08-31T00:38:26;314.90;;;187.27;;
48481;SDS011;34284;48.278;16.378;2023-08-31T00:40:53;318.03;;;189.50;;
48481;SDS011;34284;48.278;16.378;2023-08-31T00:43:19;315.73;;;191.53;;
48481;SDS011;34284;48.278;16.378;2023-08-31T00:45:49;310.47;;;185.73;;
48481;SDS011;34284;48.278;16.378;2023-08-31T00:48:15;316.37;;;190.17;;
48481;SDS011;34284;48.278;16.378;2023-08-31T00:50:42;318.80;;;192.03;;
48481;SDS011;34284;48.278;16.378;2023-08-31T00:53:08;310.50;;;186.10;;
48481;SDS011;34284;48.278;16.378;2023-08-31T00:55:34;317.73;;;189.90;;
48481;SDS011;34284;48.278;16.378;2023-08-31T00:58:00;315.43;;;187.23;;
48481;SDS011;34284;48.278;16.378;2023-08-31T01:00:33;313.33;;;183.87;;
48481;SDS011;34284;48.278;16.378;2023-08-31T01:03:07;317.07;;;187.77;;
48481;SDS011;34284;48.278;16.378;2023-08-31T01:05:46;315.10;;;189.87;;
48481;SDS011;34284;48.278;16.378;2023-08-31T01:10:44;312.87;;;188.17;;
48481;SDS011;34284;48.278;16.378;2023-08-31T01:13:14;315.43;;;191.40;;
48481;SDS011;34284;48.278;16.378;2023-08-31T01:15:42;310.97;;;184.67;;
48481;SDS011;34284;48.278;16.378;2023-08-31T01:18:10;310.90;;;186.53;;
48481;SDS011;34284;48.278;16.378;2023-08-31T01:21:20;318.27;;;188.37;;
48481;SDS011;34284;48.278;16.378;2023-08-31T01:23:31;319.03;;;189.40;;
48481;SDS011;34284;48.278;16.378;2023-08-31T01:26:00;318.50;;;185.87;;
48481;SDS011;34284;48.278;16.378;2023-08-31T01:28:26;312.37;;;188.67;;
48481;SDS011;34284;48.278;16.378;2023-08-31T01:30:53;311.27;;;188.80;;
48481;SDS011;34284;48.278;16.378;2023-08-31T01:33:18;326.13;;;183.80;;
48481;SDS011;34284;48.278;16.378;2023-08-31T01:35:46;310.47;;;183.93;;
48481;SDS011;34284;48.278;16.378;2023-08-31T01:38:12;309.77;;;185.73;;
48481;SDS011;34284;48.278;16.378;2023-08-31T01:40:49;310.93;;;184.03;;
48481;SDS011;34284;48.278;16.378;2023-08-31T01:43:17;219.73;;;133.47;;
48481;SDS011;34284;48.278;16.378;2023-08-31T01:45:44;318.97;;;185.93;;
48481;SDS011;34284;48.278;16.378;2023-08-31T01:48:11;215.40;;;132.17;;
48481;SDS011;34284;48.278;16.378;2023-08-31T01:50:37;316.27;;;183.13;;
48481;SDS011;34284;48.278;16.378;2023-08-31T01:53:03;323.30;;;188.03;;
48481;SDS011;34284;48.278;16.378;2023-08-31T01:55:31;312.63;;;181.10;;
48481;SDS011;34284;48.278;16.378;2023-08-31T01:57:57;318.17;;;181.13;;
48481;SDS011;34284;48.278;16.378;2023-08-31T02:00:24;314.80;;;183.93;;
48481;SDS011;34284;48.278;16.378;2023-08-31T02:02:51;314.23;;;181.63;;
48481;SDS011;34284;48.278;16.378;2023-08-31T02:05:17;311.70;;;182.97;;
48481;SDS011;34284;48.278;16.378;2023-08-31T02:07:43;311.07;;;181.60;;
48481;SDS011;34284;48.278;16.378;2023-08-31T02:10:09;315.30;;;181.13;;
48481;SDS011;34284;48.278;16.378;2023-08-31T02:12:35;237.40;;;139.03;;
48481;SDS011;34284;48.278;16.378;2023-08-31T02:15:03;213.73;;;131.20;;
48481;SDS011;34284;48.278;16.378;2023-08-31T02:17:29;314.47;;;179.30;;
48481;SDS011;34284;48.278;16.378;2023-08-31T02:19:55;315.10;;;183.13;;
48481;SDS011;34284;48.278;16.378;2023-08-31T02:22:22;311.07;;;180.50;;
48481;SDS011;34284;48.278;16.378;2023-08-31T02:24:48;316.93;;;182.20;;
48481;SDS011;34284;48.278;16.378;2023-08-31T02:27:14;313.97;;;180.77;;
48481;SDS011;34284;48.278;16.378;2023-08-31T02:29:40;315.70;;;178.77;;
48481;SDS011;34284;48.278;16.378;2023-08-31T02:32:07;319.73;;;178.70;;
48481;SDS011;34284;48.278;16.378;2023-08-31T02:34:33;311.83;;;180.37;;
48481;SDS011;34284;48.278;16.378;2023-08-31T02:36:59;316.35;;;179.43;;
48481;SDS011;34284;48.278;16.378;2023-08-31T02:39:25;314.90;;;180.87;;
48481;SDS011;34284;48.278;16.378;2023-08-31T02:41:51;311.73;;;178.00;;
48481;SDS011;34284;48.278;16.378;2023-08-31T02:44:17;208.37;;;128.43;;
48481;SDS011;34284;48.278;16.378;2023-08-31T02:46:43;306.10;;;178.87;;
48481;SDS011;34284;48.278;16.378;2023-08-31T02:49:09;316.77;;;182.23;;
48481;SDS011;34284;48.278;16.378;2023-08-31T02:51:35;312.13;;;180.43;;
48481;SDS011;34284;48.278;16.378;2023-08-31T02:54:01;311.23;;;179.73;;
48481;SDS011;34284;48.278;16.378;2023-08-31T02:56:28;312.13;;;180.97;;
48481;SDS011;34284;48.278;16.378;2023-08-31T02:58:54;308.53;;;176.60;;
48481;SDS011;34284;48.278;16.378;2023-08-31T03:01:20;310.63;;;180.03;;
48481;SDS011;34284;48.278;16.378;2023-08-31T03:03:46;305.97;;;180.43;;
48481;SDS011;34284;48.278;16.378;2023-08-31T03:06:12;305.97;;;181.30;;
48481;SDS011;34284;48.278;16.378;2023-08-31T03:08:39;306.53;;;181.47;;
48481;SDS011;34284;48.278;16.378;2023-08-31T03:11:05;320.57;;;183.00;;
48481;SDS011;34284;48.278;16.378;2023-08-31T03:13:32;310.70;;;181.73;;
48481;SDS011;34284;48.278;16.378;2023-08-31T03:15:58;312.27;;;182.77;;
48481;SDS011;34284;48.278;16.378;2023-08-31T03:18:24;307.43;;;174.50;;
48481;SDS011;34284;48.278;16.378;2023-08-31T03:20:50;314.20;;;180.50;;
48481;SDS011;34284;48.278;16.378;2023-08-31T03:23:16;307.87;;;178.93;;
48481;SDS011;34284;48.278;16.378;2023-08-31T03:25:42;308.93;;;179.93;;
48481;SDS011;34284;48.278;16.378;2023-08-31T03:28:09;316.77;;;182.80;;
48481;SDS011;34284;48.278;16.378;2023-08-31T03:30:35;311.00;;;179.87;;
48481;SDS011;34284;48.278;16.378;2023-08-31T03:33:01;316.13;;;178.73;;
48481;SDS011;34284;48.278;16.378;2023-08-31T03:35:28;312.93;;;182.47;;
48481;SDS011;34284;48.278;16.378;2023-08-31T03:37:54;305.37;;;180.13;;
48481;SDS011;34284;48.278;16.378;2023-08-31T03:40:20;308.30;;;178.97;;
48481;SDS011;34284;48.278;16.378;2023-08-31T03:42:48;308.67;;;182.07;;
48481;SDS011;34284;48.278;16.378;2023-08-31T03:45:14;310.30;;;182.63;;
48481;SDS011;34284;48.278;16.378;2023-08-31T03:47:40;316.60;;;182.37;;
48481;SDS011;34284;48.278;16.378;2023-08-31T03:50:06;320.37;;;182.83;;
48481;SDS011;34284;48.278;16.378;2023-08-31T03:52:32;312.80;;;181.90;;
48481;SDS011;34284;48.278;16.378;2023-08-31T03:54:58;313.27;;;180.67;;
48481;SDS011;34284;48.278;16.378;2023-08-31T03:57:24;307.10;;;178.93;;
48481;SDS011;34284;48.278;16.378;2023-08-31T03:59:50;307.23;;;180.23;;
48481;SDS011;34284;48.278;16.378;2023-08-31T04:02:16;308.33;;;177.80;;
48481;SDS011;34284;48.278;16.378;2023-08-31T04:04:42;313.47;;;178.07;;
48481;SDS011;34284;48.278;16.378;2023-08-31T04:07:08;312.53;;;179.97;;
48481;SDS011;34284;48.278;16.378;2023-08-31T04:09:34;316.03;;;180.90;;
48481;SDS011;34284;48.278;16.378;2023-08-31T04:12:00;316.20;;;191.00;;
48481;SDS011;34284;48.278;16.378;2023-08-31T04:14:26;311.93;;;181.83;;
48481;SDS011;34284;48.278;16.378;2023-08-31T04:16:54;306.50;;;182.47;;
48481;SDS011;34284;48.278;16.378;2023-08-31T04:19:20;350.10;;;248.53;;
48481;SDS011;34284;48.278;16.378;2023-08-31T04:21:46;309.63;;;181.23;;
48481;SDS011;34284;48.278;16.378;2023-08-31T04:24:12;319.60;;;185.83;;
48481;SDS011;34284;48.278;16.378;2023-08-31T04:26:38;307.83;;;180.17;;
48481;SDS011;34284;48.278;16.378;2023-08-31T04:29:04;311.97;;;183.07;;
48481;SDS011;34284;48.278;16.378;2023-08-31T04:31:33;313.87;;;180.20;;
48481;SDS011;34284;48.278;16.378;2023-08-31T04:33:59;307.03;;;182.13;;
48481;SDS011;34284;48.278;16.378;2023-08-31T04:36:25;306.13;;;179.83;;
48481;SDS011;34284;48.278;16.378;2023-08-31T04:38:51;306.10;;;181.40;;
48481;SDS011;34284;48.278;16.378;2023-08-31T04:41:17;307.23;;;183.03;;
48481;SDS011;34284;48.278;16.378;2023-08-31T04:43:44;311.93;;;184.30;;
48481;SDS011;34284;48.278;16.378;2023-08-31T04:46:12;315.07;;;183.30;;
48481;SDS011;34284;48.278;16.378;2023-08-31T04:48:38;310.87;;;181.63;;
48481;SDS011;34284;48.278;16.378;2023-08-31T04:51:04;306.83;;;182.10;;
48481;SDS011;34284;48.278;16.378;2023-08-31T04:53:30;307.07;;;180.33;;
48481;SDS011;34284;48.278;16.378;2023-08-31T04:55:56;305.80;;;182.63;;
48481;SDS011;34284;48.278;16.378;2023-08-31T04:58:22;309.40;;;183.77;;
48481;SDS011;34284;48.278;16.378;2023-08-31T05:00:48;306.37;;;184.03;;
48481;SDS011;34284;48.278;16.378;2023-08-31T05:03:14;305.57;;;180.27;;
48481;SDS011;34284;48.278;16.378;2023-08-31T05:05:40;311.33;;;183.47;;
48481;SDS011;34284;48.278;16.378;2023-08-31T05:08:07;310.90;;;184.10;;
48481;SDS011;34284;48.278;16.378;2023-08-31T05:10:34;311.40;;;183.73;;
48481;SDS011;34284;48.278;16.378;2023-08-31T05:13:00;305.13;;;178.60;;
48481;SDS011;34284;48.278;16.378;2023-08-31T05:15:26;307.80;;;181.33;;
48481;SDS011;34284;48.278;16.378;2023-08-31T05:17:53;309.50;;;187.90;;
48481;SDS011;34284;48.278;16.378;2023-08-31T05:20:19;302.73;;;182.63;;
48481;SDS011;34284;48.278;16.378;2023-08-31T05:22:47;305.63;;;184.03;;
48481;SDS011;34284;48.278;16.378;2023-08-31T05:25:13;315.07;;;188.33;;
48481;SDS011;34284;48.278;16.378;2023-08-31T05:27:39;311.97;;;191.27;;
48481;SDS011;34284;48.278;16.378;2023-08-31T05:30:05;314.17;;;193.33;;
48481;SDS011;34284;48.278;16.378;2023-08-31T05:32:31;305.03;;;189.13;;
48481;SDS011;34284;48.278;16.378;2023-08-31T05:34:57;304.73;;;188.90;;
48481;SDS011;34284;48.278;16.378;2023-08-31T05:37:24;307.00;;;191.83;;
48481;SDS011;34284;48.278;16.378;2023-08-31T05:39:50;301.37;;;179.87;;
48481;SDS011;34284;48.278;16.378;2023-08-31T05:42:16;301.53;;;179.43;;
48481;SDS011;34284;48.278;16.378;2023-08-31T05:44:43;309.37;;;185.67;;
48481;SDS011;34284;48.278;16.378;2023-08-31T05:47:09;309.40;;;187.00;;
48481;SDS011;34284;48.278;16.378;2023-08-31T05:49:35;316.57;;;194.97;;
48481;SDS011;34284;48.278;16.378;2023-08-31T05:52:01;305.93;;;181.30;;
48481;SDS011;34284;48.278;16.378;2023-08-31T05:54:27;310.17;;;181.47;;
48481;SDS011;34284;48.278;16.378;2023-08-31T05:56:53;308.70;;;180.90;;
48481;SDS011;34284;48.278;16.378;2023-08-31T05:59:19;314.30;;;187.80;;
48481;SDS011;34284;48.278;16.378;2023-08-31T06:01:46;319.23;;;195.27;;
48481;SDS011;34284;48.278;16.378;2023-08-31T06:04:12;322.77;;;198.93;;
48481;SDS011;34284;48.278;16.378;2023-08-31T06:06:38;321.90;;;198.80;;
48481;SDS011;34284;48.278;16.378;2023-08-31T06:09:04;317.90;;;195.50;;
48481;SDS011;34284;48.278;16.378;2023-08-31T06:11:32;319.67;;;190.13;;
48481;SDS011;34284;48.278;16.378;2023-08-31T06:13:58;318.93;;;188.40;;
48481;SDS011;34284;48.278;16.378;2023-08-31T06:16:24;319.97;;;194.03;;
48481;SDS011;34284;48.278;16.378;2023-08-31T06:18:50;315.80;;;195.60;;
48481;SDS011;34284;48.278;16.378;2023-08-31T06:21:16;327.07;;;197.10;;
48481;SDS011;34284;48.278;16.378;2023-08-31T06:23:42;330.80;;;201.50;;
48481;SDS011;34284;48.278;16.378;2023-08-31T06:26:08;325.80;;;207.67;;
48481;SDS011;34284;48.278;16.378;2023-08-31T06:28:34;336.47;;;204.80;;
48481;SDS011;34284;48.278;16.378;2023-08-31T06:31:00;322.63;;;199.27;;
48481;SDS011;34284;48.278;16.378;2023-08-31T06:33:26;325.20;;;199.97;;
48481;SDS011;34284;48.278;16.378;2023-08-31T06:35:52;324.40;;;194.13;;
48481;SDS011;34284;48.278;16.378;2023-08-31T06:38:18;364.93;;;282.10;;
48481;SDS011;34284;48.278;16.378;2023-08-31T06:40:46;328.70;;;206.63;;
48481;SDS011;34284;48.278;16.378;2023-08-31T06:43:12;341.90;;;204.00;;
48481;SDS011;34284;48.278;16.378;2023-08-31T06:45:38;324.50;;;203.60;;
48481;SDS011;34284;48.278;16.378;2023-08-31T06:48:05;329.40;;;207.73;;
48481;SDS011;34284;48.278;16.378;2023-08-31T06:50:32;325.40;;;201.60;;
48481;SDS011;34284;48.278;16.378;2023-08-31T06:53:00;325.73;;;207.70;;
48481;SDS011;34284;48.278;16.378;2023-08-31T06:55:26;323.58;;;209.25;;
48481;SDS011;34284;48.278;16.378;2023-08-31T06:57:52;318.37;;;203.80;;
48481;SDS011;34284;48.278;16.378;2023-08-31T07:00:18;323.73;;;200.40;;
48481;SDS011;34284;48.278;16.378;2023-08-31T07:02:44;326.80;;;200.20;;
48481;SDS011;34284;48.278;16.378;2023-08-31T07:05:10;334.60;;;209.73;;
48481;SDS011;34284;48.278;16.378;2023-08-31T07:07:36;321.80;;;206.27;;
48481;SDS011;34284;48.278;16.378;2023-08-31T07:10:03;329.50;;;209.88;;
48481;SDS011;34284;48.278;16.378;2023-08-31T07:12:30;326.80;;;200.00;;
48481;SDS011;34284;48.278;16.378;2023-08-31T07:14:56;319.17;;;195.80;;
48481;SDS011;34284;48.278;16.378;2023-08-31T07:17:22;320.60;;;194.77;;
48481;SDS011;34284;48.278;16.378;2023-08-31T07:19:48;325.50;;;204.88;;
48481;SDS011;34284;48.278;16.378;2023-08-31T07:22:14;339.77;;;204.82;;
48481;SDS011;34284;48.278;16.378;2023-08-31T07:24:40;333.17;;;211.43;;
48481;SDS011;34284;48.278;16.378;2023-08-31T07:27:06;351.90;;;228.50;;
48481;SDS011;34284;48.278;16.378;2023-08-31T07:29:32;326.90;;;202.52;;
48481;SDS011;34284;48.278;16.378;2023-08-31T07:31:58;322.30;;;205.38;;
48481;SDS011;34284;48.278;16.378;2023-08-31T07:34:24;325.88;;;210.18;;
48481;SDS011;34284;48.278;16.378;2023-08-31T07:36:51;324.20;;;211.95;;
48481;SDS011;34284;48.278;16.378;2023-08-31T07:39:17;331.58;;;207.85;;
48481;SDS011;34284;48.278;16.378;2023-08-31T07:41:43;344.58;;;214.50;;
48481;SDS011;34284;48.278;16.378;2023-08-31T07:44:09;340.45;;;225.43;;
48481;SDS011;34284;48.278;16.378;2023-08-31T07:46:36;337.33;;;224.07;;
48481;SDS011;34284;48.278;16.378;2023-08-31T07:49:01;344.92;;;226.70;;
48481;SDS011;34284;48.278;16.378;2023-08-31T07:51:29;342.02;;;229.77;;
48481;SDS011;34284;48.278;16.378;2023-08-31T07:53:55;335.95;;;235.10;;
48481;SDS011;34284;48.278;16.378;2023-08-31T07:56:21;338.45;;;238.95;;
48481;SDS011;34284;48.278;16.378;2023-08-31T07:58:49;339.35;;;230.95;;
48481;SDS011;34284;48.278;16.378;2023-08-31T08:01:15;344.23;;;233.98;;
48481;SDS011;34284;48.278;16.378;2023-08-31T08:03:42;347.23;;;236.60;;
48481;SDS011;34284;48.278;16.378;2023-08-31T08:06:08;344.95;;;239.02;;
48481;SDS011;34284;48.278;16.378;2023-08-31T08:08:34;352.80;;;243.00;;
48481;SDS011;34284;48.278;16.378;2023-08-31T08:11:00;337.65;;;238.60;;
48481;SDS011;34284;48.278;16.378;2023-08-31T08:13:27;341.50;;;243.93;;
48481;SDS011;34284;48.278;16.378;2023-08-31T08:15:53;343.88;;;247.18;;
48481;SDS011;34284;48.278;16.378;2023-08-31T08:18:19;353.98;;;253.45;;
48481;SDS011;34284;48.278;16.378;2023-08-31T08:20:52;380.38;;;257.00;;
48481;SDS011;34284;48.278;16.378;2023-08-31T08:23:18;356.83;;;262.10;;
48481;SDS011;34284;48.278;16.378;2023-08-31T08:25:44;365.58;;;260.33;;
48481;SDS011;34284;48.278;16.378;2023-08-31T08:28:10;348.08;;;256.00;;
48481;SDS011;34284;48.278;16.378;2023-08-31T08:30:36;350.30;;;257.65;;
48481;SDS011;34284;48.278;16.378;2023-08-31T08:33:02;344.65;;;257.55;;
48481;SDS011;34284;48.278;16.378;2023-08-31T08:35:28;351.45;;;258.25;;
48481;SDS011;34284;48.278;16.378;2023-08-31T08:37:54;345.90;;;262.73;;
48481;SDS011;34284;48.278;16.378;2023-08-31T08:40:20;361.80;;;268.77;;
48481;SDS011;34284;48.278;16.378;2023-08-31T08:42:47;356.48;;;271.20;;
48481;SDS011;34284;48.278;16.378;2023-08-31T08:45:13;360.13;;;273.90;;
48481;SDS011;34284;48.278;16.378;2023-08-31T08:47:43;361.13;;;275.63;;
48481;SDS011;34284;48.278;16.378;2023-08-31T08:50:12;367.10;;;282.67;;
48481;SDS011;34284;48.278;16.378;2023-08-31T08:52:39;367.55;;;286.10;;
48481;SDS011;34284;48.278;16.378;2023-08-31T08:55:05;357.23;;;284.98;;
48481;SDS011;34284;48.278;16.378;2023-08-31T08:57:31;363.00;;;283.10;;
48481;SDS011;34284;48.278;16.378;2023-08-31T08:59:57;359.95;;;279.60;;
48481;SDS011;34284;48.278;16.378;2023-08-31T09:02:24;353.40;;;276.42;;
48481;SDS011;34284;48.278;16.378;2023-08-31T09:04:50;353.52;;;281.67;;
48481;SDS011;34284;48.278;16.378;2023-08-31T09:07:19;362.67;;;287.40;;
48481;SDS011;34284;48.278;16.378;2023-08-31T09:09:49;369.92;;;293.83;;
48481;SDS011;34284;48.278;16.378;2023-08-31T09:12:16;361.45;;;293.30;;
48481;SDS011;34284;48.278;16.378;2023-08-31T09:14:42;361.65;;;296.23;;
48481;SDS011;34284;48.278;16.378;2023-08-31T09:17:08;365.35;;;293.10;;
48481;SDS011;34284;48.278;16.378;2023-08-31T09:19:34;357.15;;;293.27;;
48481;SDS011;34284;48.278;16.378;2023-08-31T09:22:00;375.25;;;302.10;;
48481;SDS011;34284;48.278;16.378;2023-08-31T09:24:27;353.85;;;288.83;;
48481;SDS011;34284;48.278;16.378;2023-08-31T09:26:56;360.10;;;292.05;;
48481;SDS011;34284;48.278;16.378;2023-08-31T09:29:22;361.73;;;290.98;;
48481;SDS011;34284;48.278;16.378;2023-08-31T09:31:48;359.33;;;288.25;;
48481;SDS011;34284;48.278;16.378;2023-08-31T09:34:15;364.95;;;290.58;;
48481;SDS011;34284;48.278;16.378;2023-08-31T09:36:41;366.95;;;294.83;;
48481;SDS011;34284;48.278;16.378;2023-08-31T09:39:07;359.50;;;290.02;;
48481;SDS011;34284;48.278;16.378;2023-08-31T09:41:34;357.65;;;284.65;;
48481;SDS011;34284;48.278;16.378;2023-08-31T09:44:16;355.33;;;282.63;;
48481;SDS011;34284;48.278;16.378;2023-08-31T09:46:43;361.13;;;281.58;;
48481;SDS011;34284;48.278;16.378;2023-08-31T09:49:09;355.65;;;271.00;;
48481;SDS011;34284;48.278;16.378;2023-08-31T09:51:36;360.27;;;275.83;;
48481;SDS011;34284;48.278;16.378;2023-08-31T09:54:05;356.67;;;275.35;;
48481;SDS011;34284;48.278;16.378;2023-08-31T09:56:32;350.80;;;268.92;;
48481;SDS011;34284;48.278;16.378;2023-08-31T09:58:59;356.88;;;274.67;;
48481;SDS011;34284;48.278;16.378;2023-08-31T10:01:25;355.73;;;270.33;;
48481;SDS011;34284;48.278;16.378;2023-08-31T10:03:51;358.52;;;269.75;;
48481;SDS011;34284;48.278;16.378;2023-08-31T10:06:18;364.70;;;276.88;;
48481;SDS011;34284;48.278;16.378;2023-08-31T10:08:44;356.00;;;269.17;;
48481;SDS011;34284;48.278;16.378;2023-08-31T10:11:10;359.30;;;266.83;;
48481;SDS011;34284;48.278;16.378;2023-08-31T10:13:38;347.77;;;260.13;;
48481;SDS011;34284;48.278;16.378;2023-08-31T10:16:06;354.35;;;273.13;;
48481;SDS011;34284;48.278;16.378;2023-08-31T10:18:34;353.40;;;277.55;;
48481;SDS011;34284;48.278;16.378;2023-08-31T10:21:01;353.10;;;275.95;;
48481;SDS011;34284;48.278;16.378;2023-08-31T10:23:28;348.42;;;272.80;;
48481;SDS011;34284;48.278;16.378;2023-08-31T10:28:21;358.98;;;280.00;;
48481;SDS011;34284;48.278;16.378;2023-08-31T10:31:06;359.50;;;282.23;;
48481;SDS011;34284;48.278;16.378;2023-08-31T10:36:14;359.77;;;289.52;;
48481;SDS011;34284;48.278;16.378;2023-08-31T10:38:41;369.73;;;301.80;;
48481;SDS011;34284;48.278;16.378;2023-08-31T10:46:43;372.30;;;313.13;;
48481;SDS011;34284;48.278;16.378;2023-08-31T10:51:36;372.25;;;320.48;;
48481;SDS011;34284;48.278;16.378;2023-08-31T10:54:06;369.48;;;315.13;;
48481;SDS011;34284;48.278;16.378;2023-08-31T10:56:38;384.65;;;322.70;;
48481;SDS011;34284;48.278;16.378;2023-08-31T10:59:04;383.35;;;311.65;;
48481;SDS011;34284;48.278;16.378;2023-08-31T11:04:15;382.10;;;314.35;;
48481;SDS011;34284;48.278;16.378;2023-08-31T11:06:41;390.35;;;310.52;;
48481;SDS011;34284;48.278;16.378;2023-08-31T11:09:10;380.65;;;313.25;;
48481;SDS011;34284;48.278;16.378;2023-08-31T11:11:40;387.00;;;318.77;;
48481;SDS011;34284;48.278;16.378;2023-08-31T11:14:06;377.13;;;311.55;;
48481;SDS011;34284;48.278;16.378;2023-08-31T11:16:37;393.48;;;323.90;;
48481;SDS011;34284;48.278;16.378;2023-08-31T11:19:03;390.20;;;326.83;;
48481;SDS011;34284;48.278;16.378;2023-08-31T11:21:30;455.63;;;396.17;;
48481;SDS011;34284;48.278;16.378;2023-08-31T11:23:56;404.58;;;345.95;;
48481;SDS011;34284;48.278;16.378;2023-08-31T11:26:24;402.95;;;350.90;;
48481;SDS011;34284;48.278;16.378;2023-08-31T11:28:50;402.08;;;351.98;;
48481;SDS011;34284;48.278;16.378;2023-08-31T11:31:22;397.90;;;344.48;;
48481;SDS011;34284;48.278;16.378;2023-08-31T11:33:49;402.52;;;350.98;;
48481;SDS011;34284;48.278;16.378;2023-08-31T11:36:15;408.80;;;354.15;;
48481;SDS011;34284;48.278;16.378;2023-08-31T11:38:44;404.13;;;351.27;;
48481;SDS011;34284;48.278;16.378;2023-08-31T11:41:10;401.52;;;350.92;;
48481;SDS011;34284;48.278;16.378;2023-08-31T11:43:36;397.65;;;353.33;;
48481;SDS011;34284;48.278;16.378;2023-08-31T11:46:03;404.42;;;350.20;;
48481;SDS011;34284;48.278;16.378;2023-08-31T11:48:29;391.10;;;344.05;;
48481;SDS011;34284;48.278;16.378;2023-08-31T11:50:55;396.73;;;335.27;;
48481;SDS011;34284;48.278;16.378;2023-08-31T11:53:22;398.17;;;337.38;;
48481;SDS011;34284;48.278;16.378;2023-08-31T11:55:51;390.70;;;327.40;;
48481;SDS011;34284;48.278;16.378;2023-08-31T11:58:18;398.75;;;328.10;;
48481;SDS011;34284;48.278;16.378;2023-08-31T12:00:45;394.17;;;329.13;;
48481;SDS011;34284;48.278;16.378;2023-08-31T12:03:11;389.67;;;325.95;;
48481;SDS011;34284;48.278;16.378;2023-08-31T12:05:47;389.45;;;323.98;;
48481;SDS011;34284;48.278;16.378;2023-08-31T12:08:16;399.27;;;330.60;;
48481;SDS011;34284;48.278;16.378;2023-08-31T12:10:42;387.55;;;321.05;;
48481;SDS011;34284;48.278;16.378;2023-08-31T12:13:08;391.15;;;326.33;;
48481;SDS011;34284;48.278;16.378;2023-08-31T12:15:34;391.98;;;335.58;;
48481;SDS011;34284;48.278;16.378;2023-08-31T12:18:10;387.95;;;339.38;;
48481;SDS011;34284;48.278;16.378;2023-08-31T12:20:46;392.73;;;327.27;;
48481;SDS011;34284;48.278;16.378;2023-08-31T12:23:12;401.48;;;342.38;;
48481;SDS011;34284;48.278;16.378;2023-08-31T12:25:47;399.25;;;337.83;;
48481;SDS011;34284;48.278;16.378;2023-08-31T12:28:13;397.33;;;341.25;;
48481;SDS011;34284;48.278;16.378;2023-08-31T12:30:41;392.23;;;345.15;;
48481;SDS011;34284;48.278;16.378;2023-08-31T12:33:09;400.98;;;348.63;;
48481;SDS011;34284;48.278;16.378;2023-08-31T12:35:35;390.92;;;344.00;;
48481;SDS011;34284;48.278;16.378;2023-08-31T12:38:01;398.35;;;337.88;;
48481;SDS011;34284;48.278;16.378;2023-08-31T12:40:30;397.63;;;339.80;;
48481;SDS011;34284;48.278;16.378;2023-08-31T12:42:56;399.02;;;338.65;;
48481;SDS011;34284;48.278;16.378;2023-08-31T12:45:22;394.02;;;335.95;;
48481;SDS011;34284;48.278;16.378;2023-08-31T12:47:48;397.85;;;335.10;;
48481;SDS011;34284;48.278;16.378;2023-08-31T12:50:14;402.58;;;338.80;;
48481;SDS011;34284;48.278;16.378;2023-08-31T12:52:40;398.83;;;338.13;;
48481;SDS011;34284;48.278;16.378;2023-08-31T12:55:11;390.80;;;338.60;;
48481;SDS011;34284;48.278;16.378;2023-08-31T12:57:37;394.02;;;335.35;;
48481;SDS011;34284;48.278;16.378;2023-08-31T13:00:03;396.13;;;339.42;;
48481;SDS011;34284;48.278;16.378;2023-08-31T13:02:36;384.42;;;332.35;;
48481;SDS011;34284;48.278;16.378;2023-08-31T13:05:02;391.08;;;335.23;;
48481;SDS011;34284;48.278;16.378;2023-08-31T13:07:28;393.90;;;336.35;;
48481;SDS011;34284;48.278;16.378;2023-08-31T13:09:54;402.05;;;330.40;;
48481;SDS011;34284;48.278;16.378;2023-08-31T13:12:20;393.65;;;336.27;;
48481;SDS011;34284;48.278;16.378;2023-08-31T13:14:46;398.00;;;334.63;;
48481;SDS011;34284;48.278;16.378;2023-08-31T13:17:12;392.02;;;331.27;;
48481;SDS011;34284;48.278;16.378;2023-08-31T13:19:38;387.52;;;330.10;;
48481;SDS011;34284;48.278;16.378;2023-08-31T13:22:04;384.75;;;330.02;;
48481;SDS011;34284;48.278;16.378;2023-08-31T13:24:30;394.20;;;328.23;;
48481;SDS011;34284;48.278;16.378;2023-08-31T13:26:56;385.05;;;332.60;;
48481;SDS011;34284;48.278;16.378;2023-08-31T13:29:22;398.15;;;340.88;;
48481;SDS011;34284;48.278;16.378;2023-08-31T13:31:48;404.85;;;342.35;;
48481;SDS011;34284;48.278;16.378;2023-08-31T13:34:14;410.35;;;335.13;;
48481;SDS011;34284;48.278;16.378;2023-08-31T13:36:40;403.90;;;338.42;;
48481;SDS011;34284;48.278;16.378;2023-08-31T13:39:07;397.05;;;330.67;;
48481;SDS011;34284;48.278;16.378;2023-08-31T13:41:33;398.10;;;321.42;;
48481;SDS011;34284;48.278;16.378;2023-08-31T13:43:59;402.60;;;325.77;;
48481;SDS011;34284;48.278;16.378;2023-08-31T13:46:25;393.42;;;318.63;;
48481;SDS011;34284;48.278;16.378;2023-08-31T13:48:51;399.63;;;323.40;;
48481;SDS011;34284;48.278;16.378;2023-08-31T13:51:17;398.52;;;328.58;;
48481;SDS011;34284;48.278;16.378;2023-08-31T13:53:43;397.75;;;324.17;;
48481;SDS011;34284;48.278;16.378;2023-08-31T13:56:09;396.15;;;322.60;;
48481;SDS011;34284;48.278;16.378;2023-08-31T13:58:35;390.17;;;322.52;;
48481;SDS011;34284;48.278;16.378;2023-08-31T14:01:01;391.50;;;323.13;;